Time;durP1;ratioP1;P1;durP2;ratioP2;P2;SDS_P1;SDS_P2;PMS_P1;PMS_P2;Temp;Humidity;BMP_temperature;BMP_pressure;BME280_temperature;BME280_humidity;BME280_pressure;Samples;Min_cycle;Max_cycle;Signal;HPM_P1;HPM_P2
2024/04/04 00:00:08;;;;;;;238.07;74.80;;;;;;;;;;5014054;28;20222;-48
2024/04/04 00:02:34;;;;;;;236.95;72.03;;;;;;;;;;5013992;28;20419;-48
2024/04/04 00:05:00;;;;;;;235.23;68.87;;;;;;;;;;5013631;28;20180;-47
2024/04/04 00:07:26;;;;;;;237.15;72.78;;;;;;;;;;5013663;28;20524;-49
2024/04/04 00:09:53;;;;;;;234.73;69.63;;;;;;;;;;5013423;28;20232;-48
2024/04/04 00:12:19;;;;;;;235.20;69.63;;;;;;;;;;5013806;28;20415;-48
2024/04/04 00:14:46;;;;;;;238.95;74.05;;;;;;;;;;5013530;28;20203;-47
2024/04/04 00:17:12;;;;;;;232.73;68.63;;;;;;;;;;5013492;28;20190;-48
2024/04/04 00:19:38;;;;;;;233.17;68.97;;;;;;;;;;5013228;28;20210;-48
2024/04/04 00:22:04;;;;;;;235.13;72.03;;;;;;;;;;5013922;28;20420;-48
2024/04/04 00:24:30;;;;;;;235.30;71.25;;;;;;;;;;5013520;28;20486;-48
2024/04/04 00:26:56;;;;;;;234.30;68.97;;;;;;;;;;5013151;28;20746;-47
2024/04/04 00:29:22;;;;;;;237.07;74.47;;;;;;;;;;5013192;28;20430;-47
2024/04/04 00:31:48;;;;;;;236.00;74.32;;;;;;;;;;5013730;28;20411;-48
2024/04/04 00:34:14;;;;;;;234.48;71.63;;;;;;;;;;5013387;28;20173;-47
2024/04/04 00:36:40;;;;;;;236.37;71.60;;;;;;;;;;5012974;28;20375;-48
2024/04/04 00:39:07;;;;;;;234.77;69.25;;;;;;;;;;5013059;28;20850;-48
2024/04/04 00:41:33;;;;;;;237.15;70.75;;;;;;;;;;5009510;28;20184;-48
2024/04/04 00:43:59;;;;;;;234.52;69.85;;;;;;;;;;5013064;28;20164;-47
2024/04/04 00:46:25;;;;;;;237.75;73.45;;;;;;;;;;5013111;28;20230;-47
2024/04/04 00:48:52;;;;;;;238.53;74.10;;;;;;;;;;5013045;28;20184;-48
2024/04/04 00:51:18;;;;;;;235.07;73.30;;;;;;;;;;5013162;28;20439;-48
2024/04/04 00:53:44;;;;;;;233.52;69.63;;;;;;;;;;5012817;28;20199;-48
2024/04/04 00:56:10;;;;;;;235.67;71.27;;;;;;;;;;5012764;28;20652;-47
2024/04/04 00:58:36;;;;;;;236.93;74.82;;;;;;;;;;5012645;28;20474;-47
2024/04/04 01:01:02;;;;;;;233.17;67.97;;;;;;;;;;5012529;28;20207;-49
2024/04/04 01:03:28;;;;;;;237.07;73.20;;;;;;;;;;5012416;28;20417;-48
2024/04/04 01:05:54;;;;;;;235.02;68.80;;;;;;;;;;5011815;28;20238;-48
2024/04/04 01:08:21;;;;;;;235.97;71.00;;;;;;;;;;5012475;28;20180;-49
2024/04/04 01:10:47;;;;;;;232.45;68.10;;;;;;;;;;5012545;28;20940;-48
2024/04/04 01:13:14;;;;;;;237.37;70.10;;;;;;;;;;5012378;28;20181;-48
2024/04/04 01:15:40;;;;;;;234.35;69.57;;;;;;;;;;5012341;28;20539;-48
2024/04/04 01:18:06;;;;;;;232.47;68.33;;;;;;;;;;5012636;28;20203;-48
2024/04/04 01:20:32;;;;;;;233.82;69.20;;;;;;;;;;5012508;28;20575;-48
2024/04/04 01:22:58;;;;;;;238.07;74.80;;;;;;;;;;5012468;28;20678;-48
2024/04/04 01:25:24;;;;;;;236.77;73.63;;;;;;;;;;5012334;28;20922;-48
2024/04/04 01:27:51;;;;;;;233.70;68.37;;;;;;;;;;5012275;28;20420;-48
2024/04/04 01:30:17;;;;;;;236.18;73.25;;;;;;;;;;5012274;28;20442;-48
2024/04/04 01:32:43;;;;;;;235.45;69.65;;;;;;;;;;5012465;28;20191;-48
2024/04/04 01:35:09;;;;;;;240.52;76.22;;;;;;;;;;5012240;28;20182;-48
2024/04/04 01:37:36;;;;;;;236.63;75.03;;;;;;;;;;5012253;28;20416;-48
2024/04/04 01:40:04;;;;;;;236.00;71.90;;;;;;;;;;5011468;28;20211;-49
2024/04/04 01:42:30;;;;;;;238.10;75.88;;;;;;;;;;5012012;28;20285;-48
2024/04/04 01:44:56;;;;;;;234.43;70.40;;;;;;;;;;5012092;28;21002;-48
2024/04/04 01:47:22;;;;;;;236.90;73.60;;;;;;;;;;5011884;28;20419;-48
2024/04/04 01:49:48;;;;;;;237.87;76.33;;;;;;;;;;5011868;28;20208;-48
2024/04/04 01:52:14;;;;;;;235.83;72.87;;;;;;;;;;5012353;28;20411;-47
2024/04/04 01:54:40;;;;;;;236.20;73.37;;;;;;;;;;5011873;28;20455;-47
2024/04/04 01:57:06;;;;;;;235.93;70.80;;;;;;;;;;5011459;28;20437;-48
2024/04/04 01:59:32;;;;;;;236.87;74.80;;;;;;;;;;5011241;28;20877;-48
2024/04/04 02:01:58;;;;;;;237.47;76.00;;;;;;;;;;5011786;28;20407;-48
2024/04/04 02:04:24;;;;;;;237.73;77.10;;;;;;;;;;5011722;28;20499;-47
2024/04/04 02:06:49;;;;;;;238.80;76.37;;;;;;;;;;5011287;28;20422;-48
2024/04/04 02:09:15;;;;;;;238.47;78.53;;;;;;;;;;5011588;28;20448;-48
2024/04/04 02:11:41;;;;;;;238.07;75.10;;;;;;;;;;5011605;28;20465;-48
2024/04/04 02:14:10;;;;;;;237.03;73.43;;;;;;;;;;5011669;28;20419;-48
2024/04/04 02:16:40;;;;;;;235.00;72.28;;;;;;;;;;5011393;28;20426;-48
2024/04/04 02:19:06;;;;;;;239.07;74.85;;;;;;;;;;5007045;28;20204;-48
2024/04/04 02:21:32;;;;;;;239.13;78.07;;;;;;;;;;5011705;28;20542;-49
2024/04/04 02:23:58;;;;;;;238.80;77.35;;;;;;;;;;5011337;28;20176;-49
2024/04/04 02:26:24;;;;;;;235.20;72.95;;;;;;;;;;5011188;28;20723;-48
2024/04/04 02:28:50;;;;;;;232.52;70.53;;;;;;;;;;5011469;28;20176;-47
2024/04/04 02:31:16;;;;;;;231.90;71.10;;;;;;;;;;5010628;28;20211;-49
2024/04/04 02:33:43;;;;;;;239.02;79.68;;;;;;;;;;5011639;28;20521;-49
2024/04/04 02:36:09;;;;;;;237.17;77.17;;;;;;;;;;5011289;28;20255;-48
2024/04/04 02:38:36;;;;;;;232.13;69.13;;;;;;;;;;5011029;28;20462;-48
2024/04/04 02:41:04;;;;;;;235.35;75.05;;;;;;;;;;5011123;28;20487;-49
2024/04/04 02:43:31;;;;;;;233.77;73.32;;;;;;;;;;5011281;28;20171;-48
2024/04/04 02:46:01;;;;;;;235.63;72.05;;;;;;;;;;5010898;28;20168;-49
2024/04/04 02:48:27;;;;;;;240.98;81.80;;;;;;;;;;5011197;28;20183;-48
2024/04/04 02:50:54;;;;;;;234.77;70.57;;;;;;;;;;5011055;28;20560;-48
2024/04/04 02:53:20;;;;;;;239.45;76.97;;;;;;;;;;5010234;28;20411;-48
2024/04/04 02:55:56;;;;;;;239.67;76.60;;;;;;;;;;5004142;28;20182;-49
2024/04/04 02:58:23;;;;;;;236.07;72.75;;;;;;;;;;5010871;28;20419;-48
2024/04/04 03:00:49;;;;;;;237.45;74.15;;;;;;;;;;5010943;28;20235;-49
2024/04/04 03:03:15;;;;;;;236.37;72.93;;;;;;;;;;5010882;28;20172;-48
2024/04/04 03:05:41;;;;;;;238.35;75.18;;;;;;;;;;5008355;28;20498;-49
2024/04/04 03:08:08;;;;;;;237.05;72.95;;;;;;;;;;5009932;28;20183;-49
2024/04/04 03:10:34;;;;;;;234.40;70.75;;;;;;;;;;5010728;28;20204;-48
2024/04/04 03:13:00;;;;;;;236.00;72.28;;;;;;;;;;5010694;28;20181;-47
2024/04/04 03:15:26;;;;;;;239.65;77.05;;;;;;;;;;5010699;28;20188;-48
2024/04/04 03:17:52;;;;;;;233.50;71.33;;;;;;;;;;5011067;28;20186;-48
2024/04/04 03:20:18;;;;;;;239.98;78.50;;;;;;;;;;5010281;28;20466;-48
2024/04/04 03:22:44;;;;;;;232.87;70.43;;;;;;;;;;5010798;28;20183;-48
2024/04/04 03:25:10;;;;;;;235.60;71.50;;;;;;;;;;5010854;28;20654;-48
2024/04/04 03:27:36;;;;;;;234.73;72.23;;;;;;;;;;5011039;28;20580;-48
2024/04/04 03:30:02;;;;;;;233.37;69.10;;;;;;;;;;5010769;28;20459;-48
2024/04/04 03:32:28;;;;;;;232.52;67.95;;;;;;;;;;5010785;28;20423;-49
2024/04/04 03:34:54;;;;;;;237.93;75.10;;;;;;;;;;5010587;28;20235;-48
2024/04/04 03:37:20;;;;;;;232.07;68.50;;;;;;;;;;5010795;28;20454;-48
2024/04/04 03:39:46;;;;;;;238.80;76.40;;;;;;;;;;5010602;28;20471;-48
2024/04/04 03:42:12;;;;;;;233.50;68.25;;;;;;;;;;5010692;28;20915;-48
2024/04/04 03:44:38;;;;;;;228.37;64.77;;;;;;;;;;5010681;28;20291;-49
2024/04/04 03:47:04;;;;;;;231.33;65.97;;;;;;;;;;5010749;28;20557;-49
2024/04/04 03:49:30;;;;;;;233.45;65.70;;;;;;;;;;5010437;28;20443;-48
2024/04/04 03:51:56;;;;;;;228.97;63.00;;;;;;;;;;5010691;28;20645;-48
2024/04/04 03:54:22;;;;;;;232.37;66.07;;;;;;;;;;5010937;28;20816;-47
2024/04/04 03:56:48;;;;;;;233.17;67.10;;;;;;;;;;5010242;28;20869;-47
2024/04/04 03:59:14;;;;;;;230.33;66.47;;;;;;;;;;5010713;28;20462;-48
2024/04/04 04:01:40;;;;;;;230.33;64.40;;;;;;;;;;5010544;28;20531;-47
2024/04/04 04:04:05;;;;;;;237.27;72.67;;;;;;;;;;5010533;28;20458;-48
2024/04/04 04:06:31;;;;;;;233.83;68.13;;;;;;;;;;5010544;28;20403;-47
2024/04/04 04:08:57;;;;;;;233.13;66.97;;;;;;;;;;5010560;28;20411;-49
2024/04/04 04:11:23;;;;;;;235.57;70.40;;;;;;;;;;5010445;28;20477;-48
2024/04/04 04:13:49;;;;;;;234.07;68.80;;;;;;;;;;5010509;28;20730;-48
2024/04/04 04:16:16;;;;;;;232.03;66.00;;;;;;;;;;5010153;28;20469;-48
2024/04/04 04:18:42;;;;;;;233.32;67.03;;;;;;;;;;5010844;28;20769;-48
2024/04/04 04:21:20;;;;;;;230.82;66.60;;;;;;;;;;5014188;28;20230;-48
2024/04/04 04:23:49;;;;;;;233.73;68.82;;;;;;;;;;5014022;28;20179;-48
2024/04/04 04:26:16;;;;;;;229.27;65.13;;;;;;;;;;5013545;28;20640;-48
2024/04/04 04:28:42;;;;;;;235.32;69.78;;;;;;;;;;5013706;28;20168;-48
2024/04/04 04:31:27;;;;;;;231.57;64.70;;;;;;;;;;5013488;28;20690;-48
2024/04/04 04:33:58;;;;;;;232.77;68.50;;;;;;;;;;5013576;28;20265;-48
2024/04/04 04:36:28;;;;;;;232.65;67.63;;;;;;;;;;5013465;28;20215;-48
2024/04/04 04:38:54;;;;;;;230.85;65.55;;;;;;;;;;5013690;28;20283;-48
2024/04/04 04:41:21;;;;;;;230.20;63.88;;;;;;;;;;5013761;28;20195;-49
2024/04/04 04:43:48;;;;;;;234.27;68.68;;;;;;;;;;5005999;28;20240;-49
2024/04/04 04:46:14;;;;;;;235.60;71.22;;;;;;;;;;5013171;28;20168;-48
2024/04/04 04:48:40;;;;;;;233.10;67.55;;;;;;;;;;5012845;28;20210;-48
2024/04/04 04:51:06;;;;;;;232.27;64.53;;;;;;;;;;5013435;28;20687;-48
2024/04/04 04:53:32;;;;;;;229.95;62.92;;;;;;;;;;5011126;28;20790;-48
2024/04/04 04:55:58;;;;;;;230.13;65.27;;;;;;;;;;5012672;28;20176;-48
2024/04/04 04:58:24;;;;;;;233.18;69.15;;;;;;;;;;5012670;28;20447;-48
2024/04/04 05:00:52;;;;;;;231.83;66.10;;;;;;;;;;5012756;28;20262;-48
2024/04/04 05:03:18;;;;;;;228.43;61.00;;;;;;;;;;5012971;28;20415;-47
2024/04/04 05:05:44;;;;;;;231.77;63.95;;;;;;;;;;5012661;28;20203;-47
2024/04/04 05:08:10;;;;;;;231.03;64.27;;;;;;;;;;5012748;28;20180;-49
2024/04/04 05:10:36;;;;;;;234.67;68.60;;;;;;;;;;5012601;28;20439;-48
2024/04/04 05:13:02;;;;;;;233.53;67.23;;;;;;;;;;5012185;28;20407;-48
2024/04/04 05:15:28;;;;;;;232.65;66.53;;;;;;;;;;5012476;28;20512;-48
2024/04/04 05:17:54;;;;;;;234.53;69.07;;;;;;;;;;5012681;28;20271;-48
2024/04/04 05:20:20;;;;;;;233.50;66.93;;;;;;;;;;5012487;28;20463;-48
2024/04/04 05:22:46;;;;;;;233.97;65.77;;;;;;;;;;5012724;28;20423;-48
2024/04/04 05:25:14;;;;;;;237.13;71.20;;;;;;;;;;5012471;28;20416;-48
2024/04/04 05:27:43;;;;;;;235.07;66.32;;;;;;;;;;5012130;28;20475;-48
2024/04/04 05:30:15;;;;;;;234.25;67.38;;;;;;;;;;5012436;28;20254;-48
2024/04/04 05:32:41;;;;;;;234.13;67.85;;;;;;;;;;5011605;28;20180;-48
2024/04/04 05:35:07;;;;;;;231.32;64.93;;;;;;;;;;5012092;28;20190;-49
2024/04/04 05:37:33;;;;;;;233.57;64.70;;;;;;;;;;5011973;28;20235;-49
2024/04/04 05:39:59;;;;;;;235.80;67.07;;;;;;;;;;5038645;22;20319;-49
2024/04/04 05:42:33;;;;;;;231.65;63.65;;;;;;;;;;5011935;28;20215;-48
2024/04/04 05:44:59;;;;;;;233.02;64.97;;;;;;;;;;5012225;28;20259;-49
2024/04/04 05:47:24;;;;;;;234.75;67.45;;;;;;;;;;5012245;28;20184;-48
2024/04/04 05:49:50;;;;;;;233.57;67.87;;;;;;;;;;5012424;28;20203;-48
2024/04/04 05:52:16;;;;;;;232.07;65.07;;;;;;;;;;5012990;28;20407;-48
2024/04/04 05:54:44;;;;;;;231.53;63.17;;;;;;;;;;5013024;28;20906;-48
2024/04/04 05:57:10;;;;;;;235.23;67.05;;;;;;;;;;5012339;28;20446;-48
2024/04/04 05:59:36;;;;;;;233.30;66.23;;;;;;;;;;5012624;28;20213;-48
2024/04/04 06:02:02;;;;;;;231.17;61.97;;;;;;;;;;5012934;28;20443;-48
2024/04/04 06:04:28;;;;;;;231.30;64.20;;;;;;;;;;5012672;28;20421;-48
2024/04/04 06:06:54;;;;;;;237.60;72.47;;;;;;;;;;5012599;28;20415;-47
2024/04/04 06:09:20;;;;;;;233.05;68.22;;;;;;;;;;5012854;28;20534;-48
2024/04/04 06:11:46;;;;;;;230.97;65.37;;;;;;;;;;5012800;28;20192;-48
2024/04/04 06:14:12;;;;;;;233.97;67.77;;;;;;;;;;5012478;28;20415;-47
2024/04/04 06:16:39;;;;;;;232.53;66.17;;;;;;;;;;5012328;28;20466;-47
2024/04/04 06:19:05;;;;;;;233.05;65.63;;;;;;;;;;5004993;28;20465;-47
2024/04/04 06:21:31;;;;;;;233.75;68.40;;;;;;;;;;5012280;28;20267;-47
2024/04/04 06:23:57;;;;;;;232.37;68.00;;;;;;;;;;5012537;28;20254;-47
2024/04/04 06:26:25;;;;;;;235.80;72.67;;;;;;;;;;5011899;28;20417;-47
2024/04/04 06:28:52;;;;;;;236.13;71.05;;;;;;;;;;5012614;28;20408;-46
2024/04/04 06:31:18;;;;;;;230.27;64.45;;;;;;;;;;5012371;28;20207;-47
2024/04/04 06:33:44;;;;;;;235.70;70.70;;;;;;;;;;5012481;28;20567;-47
2024/04/04 06:36:10;;;;;;;231.25;71.70;;;;;;;;;;5011824;28;20264;-47
2024/04/04 06:38:36;;;;;;;231.53;70.10;;;;;;;;;;5011873;28;20273;-47
2024/04/04 06:41:03;;;;;;;231.90;70.40;;;;;;;;;;5012094;28;20458;-47
2024/04/04 06:43:29;;;;;;;232.45;69.65;;;;;;;;;;5011885;28;20418;-47
2024/04/04 06:45:55;;;;;;;236.37;73.33;;;;;;;;;;5010935;28;20181;-47
2024/04/04 06:48:20;;;;;;;234.63;71.57;;;;;;;;;;5011708;28;20404;-47
2024/04/04 06:50:46;;;;;;;237.67;73.90;;;;;;;;;;5011087;28;20579;-47
2024/04/04 06:53:12;;;;;;;237.43;74.27;;;;;;;;;;5011208;28;20425;-47
2024/04/04 06:55:38;;;;;;;236.57;71.97;;;;;;;;;;5010957;28;20521;-48
2024/04/04 06:58:04;;;;;;;236.27;72.63;;;;;;;;;;5011180;28;20416;-47
2024/04/04 07:00:30;;;;;;;234.57;72.10;;;;;;;;;;5011073;28;20467;-47
2024/04/04 07:02:56;;;;;;;236.40;75.30;;;;;;;;;;5011021;28;20418;-47
2024/04/04 07:05:24;;;;;;;240.50;80.75;;;;;;;;;;5010843;28;20707;-47
2024/04/04 07:07:50;;;;;;;240.93;79.18;;;;;;;;;;5010931;28;20182;-47
2024/04/04 07:10:17;;;;;;;240.73;82.40;;;;;;;;;;5011256;28;20258;-47
2024/04/04 07:12:43;;;;;;;240.63;79.68;;;;;;;;;;5009016;28;20513;-47
2024/04/04 07:15:09;;;;;;;242.65;82.53;;;;;;;;;;5011757;28;20184;-47
2024/04/04 07:17:34;;;;;;;234.93;71.77;;;;;;;;;;5012181;28;20182;-47
2024/04/04 07:20:00;;;;;;;237.87;76.10;;;;;;;;;;5011535;28;20484;-47
2024/04/04 07:22:26;;;;;;;235.73;72.80;;;;;;;;;;5011400;28;20429;-47
2024/04/04 07:24:52;;;;;;;237.37;73.70;;;;;;;;;;5012040;28;20425;-46
2024/04/04 07:27:19;;;;;;;236.80;72.10;;;;;;;;;;5011376;28;20498;-47
2024/04/04 07:29:45;;;;;;;236.82;73.55;;;;;;;;;;5005016;28;20197;-46
2024/04/04 07:32:11;;;;;;;238.80;76.40;;;;;;;;;;5011400;28;20176;-46
2024/04/04 07:34:37;;;;;;;236.93;74.10;;;;;;;;;;5011447;28;20665;-47
2024/04/04 07:37:03;;;;;;;240.63;79.50;;;;;;;;;;5011665;28;20412;-47
2024/04/04 07:39:31;;;;;;;242.02;81.60;;;;;;;;;;5011472;28;20558;-47
2024/04/04 07:41:57;;;;;;;239.77;75.65;;;;;;;;;;5011739;28;20187;-47
2024/04/04 07:44:23;;;;;;;240.15;77.95;;;;;;;;;;5011380;28;20185;-47
2024/04/04 07:46:52;;;;;;;238.07;77.25;;;;;;;;;;5011486;28;20180;-47
2024/04/04 07:49:18;;;;;;;239.82;79.80;;;;;;;;;;5009080;28;20248;-47
2024/04/04 07:51:44;;;;;;;236.77;77.43;;;;;;;;;;5011840;28;20610;-47
2024/04/04 07:54:10;;;;;;;243.30;83.32;;;;;;;;;;5012212;28;20491;-47
2024/04/04 07:56:37;;;;;;;240.47;80.37;;;;;;;;;;5014960;28;20661;-46
2024/04/04 07:59:03;;;;;;;239.05;78.47;;;;;;;;;;5014639;28;20467;-47
2024/04/04 08:01:29;;;;;;;237.40;75.70;;;;;;;;;;5014740;28;20192;-46
2024/04/04 08:03:55;;;;;;;244.27;85.32;;;;;;;;;;5014781;28;20249;-46
2024/04/04 08:06:21;;;;;;;235.40;74.32;;;;;;;;;;5014715;28;20233;-46
2024/04/04 08:08:47;;;;;;;239.27;78.40;;;;;;;;;;5018146;28;20185;-47
2024/04/04 08:11:15;;;;;;;241.18;79.75;;;;;;;;;;5020832;28;20429;-46
2024/04/04 08:13:42;;;;;;;237.65;73.43;;;;;;;;;;5012401;28;20296;-47
2024/04/04 08:16:08;;;;;;;240.35;78.28;;;;;;;;;;5005769;28;20198;-47
2024/04/04 08:18:34;;;;;;;238.20;77.63;;;;;;;;;;4998094;28;20185;-46
2024/04/04 08:21:00;;;;;;;238.27;77.17;;;;;;;;;;5012860;28;20635;-46
2024/04/04 08:23:26;;;;;;;235.55;74.60;;;;;;;;;;5008978;28;20410;-46
2024/04/04 08:25:53;;;;;;;235.60;72.93;;;;;;;;;;5006674;28;20178;-46
2024/04/04 08:28:19;;;;;;;239.13;78.82;;;;;;;;;;5014016;28;20412;-46
2024/04/04 08:30:45;;;;;;;238.07;79.78;;;;;;;;;;5013125;28;20198;-46
2024/04/04 08:33:11;;;;;;;239.40;76.32;;;;;;;;;;5013884;28;20281;-46
2024/04/04 08:35:38;;;;;;;236.87;78.47;;;;;;;;;;5009452;28;20212;-46
2024/04/04 08:38:04;;;;;;;242.20;85.13;;;;;;;;;;5014759;28;20442;-46
2024/04/04 08:40:31;;;;;;;238.55;77.88;;;;;;;;;;5014239;28;20206;-46
2024/04/04 08:42:57;;;;;;;241.23;80.30;;;;;;;;;;5013726;28;20195;-46
2024/04/04 08:45:23;;;;;;;235.67;75.20;;;;;;;;;;5014082;28;20417;-47
2024/04/04 08:47:49;;;;;;;237.88;76.43;;;;;;;;;;5014198;28;20404;-46
2024/04/04 08:50:15;;;;;;;237.57;77.07;;;;;;;;;;5013804;28;20280;-46
2024/04/04 08:52:41;;;;;;;235.97;73.30;;;;;;;;;;5014103;28;20190;-46
2024/04/04 08:55:08;;;;;;;238.37;75.43;;;;;;;;;;5013508;28;20419;-46
2024/04/04 08:57:34;;;;;;;238.38;77.10;;;;;;;;;;5013579;28;20415;-46
2024/04/04 09:00:00;;;;;;;235.60;74.88;;;;;;;;;;5014350;28;20212;-46
2024/04/04 09:02:26;;;;;;;237.10;77.05;;;;;;;;;;5010733;28;20176;-47
2024/04/04 09:05:03;;;;;;;239.52;79.68;;;;;;;;;;5013718;28;20205;-47
2024/04/04 09:07:29;;;;;;;236.98;76.15;;;;;;;;;;5012917;28;20177;-46
2024/04/04 09:09:55;;;;;;;240.55;80.45;;;;;;;;;;5014007;28;20238;-47
2024/04/04 09:12:21;;;;;;;238.20;79.30;;;;;;;;;;5013175;28;20223;-47
2024/04/04 09:14:57;;;;;;;239.83;79.60;;;;;;;;;;5013877;28;20422;-47
2024/04/04 09:17:23;;;;;;;236.80;76.55;;;;;;;;;;5010541;28;20415;-47
2024/04/04 09:19:53;;;;;;;235.37;71.37;;;;;;;;;;5012217;28;20214;-47
2024/04/04 09:22:19;;;;;;;241.85;80.13;;;;;;;;;;4999675;28;20924;-47
2024/04/04 09:24:45;;;;;;;237.77;74.23;;;;;;;;;;4993772;28;20217;-47
2024/04/04 09:27:12;;;;;;;245.55;81.53;;;;;;;;;;5012107;28;20523;-47
2024/04/04 09:29:38;;;;;;;243.50;80.40;;;;;;;;;;5003860;28;20206;-47
2024/04/04 09:32:05;;;;;;;244.95;81.07;;;;;;;;;;5012597;28;20221;-47
2024/04/04 09:34:33;;;;;;;245.38;80.22;;;;;;;;;;5004302;28;20179;-47
2024/04/04 09:36:59;;;;;;;243.48;77.85;;;;;;;;;;4991175;28;20184;-46
2024/04/04 09:39:25;;;;;;;248.17;87.33;;;;;;;;;;4992495;28;20748;-48
2024/04/04 09:41:53;;;;;;;245.57;82.47;;;;;;;;;;5010489;28;20427;-48
2024/04/04 09:44:19;;;;;;;246.50;84.88;;;;;;;;;;5013109;28;20407;-48
2024/04/04 09:46:46;;;;;;;251.57;90.33;;;;;;;;;;5012014;28;20684;-47
2024/04/04 09:49:12;;;;;;;246.35;84.55;;;;;;;;;;4999992;28;20447;-47
2024/04/04 09:51:39;;;;;;;248.40;87.80;;;;;;;;;;4992482;28;20212;-47
2024/04/04 09:54:06;;;;;;;245.15;82.97;;;;;;;;;;4992586;28;20181;-48
2024/04/04 09:56:33;;;;;;;242.27;77.13;;;;;;;;;;4999312;28;20179;-47
2024/04/04 09:58:59;;;;;;;246.85;85.47;;;;;;;;;;5001171;28;20565;-47
2024/04/04 10:01:26;;;;;;;237.68;73.07;;;;;;;;;;5006733;28;20200;-48
2024/04/04 10:03:55;;;;;;;245.07;80.83;;;;;;;;;;5012223;28;20176;-47
2024/04/04 10:06:37;;;;;;;243.50;80.20;;;;;;;;;;5011818;28;20477;-47
2024/04/04 10:09:20;;;;;;;249.97;90.33;;;;;;;;;;5011865;28;20446;-48
2024/04/04 10:11:47;;;;;;;248.75;85.75;;;;;;;;;;5010413;28;20494;-47
2024/04/04 10:14:14;;;;;;;251.03;91.97;;;;;;;;;;5011777;28;20206;-48
2024/04/04 10:16:44;;;;;;;249.87;86.07;;;;;;;;;;4995010;28;20411;-48
2024/04/04 10:19:11;;;;;;;251.93;89.63;;;;;;;;;;4991955;28;20975;-47
2024/04/04 10:21:37;;;;;;;251.43;89.50;;;;;;;;;;4991865;28;20436;-47
2024/04/04 10:24:03;;;;;;;255.23;98.20;;;;;;;;;;4992140;28;20415;-47
2024/04/04 10:26:30;;;;;;;254.00;94.00;;;;;;;;;;4991470;28;20850;-49
2024/04/04 10:28:56;;;;;;;252.23;91.47;;;;;;;;;;4991905;28;20440;-48
2024/04/04 10:31:22;;;;;;;248.75;87.80;;;;;;;;;;4991885;28;20434;-47
2024/04/04 10:33:48;;;;;;;248.15;85.40;;;;;;;;;;4991699;28;20173;-47
2024/04/04 10:36:14;;;;;;;253.00;93.23;;;;;;;;;;4991832;28;20196;-47
2024/04/04 10:38:40;;;;;;;245.87;82.80;;;;;;;;;;4991607;28;20408;-48
2024/04/04 10:41:06;;;;;;;247.83;83.93;;;;;;;;;;4990869;28;20497;-48
2024/04/04 10:43:41;;;;;;;248.73;86.80;;;;;;;;;;4991507;28;20411;-49
2024/04/04 10:46:07;;;;;;;248.17;86.80;;;;;;;;;;4991700;28;20426;-48
2024/04/04 10:48:33;;;;;;;247.95;88.20;;;;;;;;;;5003916;28;20736;-48
2024/04/04 10:50:59;;;;;;;245.97;84.57;;;;;;;;;;5011141;28;20203;-48
2024/04/04 10:53:26;;;;;;;250.40;92.60;;;;;;;;;;5011204;28;20827;-48
2024/04/04 10:55:54;;;;;;;249.93;90.27;;;;;;;;;;5010815;28;20399;-49
2024/04/04 10:58:20;;;;;;;245.37;82.97;;;;;;;;;;5005653;28;20407;-49
2024/04/04 11:00:46;;;;;;;252.10;91.03;;;;;;;;;;4991215;28;20467;-49
2024/04/04 11:03:13;;;;;;;249.97;88.87;;;;;;;;;;4991704;28;20416;-48
2024/04/04 11:05:41;;;;;;;257.17;99.17;;;;;;;;;;4991312;28;20435;-48
2024/04/04 11:08:08;;;;;;;254.57;97.60;;;;;;;;;;4991577;28;20434;-48
2024/04/04 11:10:34;;;;;;;250.37;92.10;;;;;;;;;;4991502;28;20514;-48
2024/04/04 11:13:00;;;;;;;253.40;97.97;;;;;;;;;;5007315;28;20419;-48
2024/04/04 11:15:26;;;;;;;249.27;92.00;;;;;;;;;;5010696;28;20407;-48
2024/04/04 11:17:52;;;;;;;255.57;96.73;;;;;;;;;;5010847;28;20423;-48
2024/04/04 11:20:19;;;;;;;258.17;104.70;;;;;;;;;;5010802;28;20471;-48
2024/04/04 11:22:45;;;;;;;253.87;97.57;;;;;;;;;;5010804;28;20403;-48
2024/04/04 11:25:12;;;;;;;259.23;100.80;;;;;;;;;;5011010;28;20415;-49
2024/04/04 11:27:38;;;;;;;259.40;100.13;;;;;;;;;;5008342;28;20433;-48
2024/04/04 11:30:06;;;;;;;255.40;99.13;;;;;;;;;;5013053;28;20472;-48
2024/04/04 11:32:32;;;;;;;250.57;90.50;;;;;;;;;;5007890;28;20911;-47
2024/04/04 11:34:58;;;;;;;252.43;93.93;;;;;;;;;;4994817;28;20509;-47
2024/04/04 11:37:25;;;;;;;248.50;89.27;;;;;;;;;;4995011;28;20777;-48
2024/04/04 11:39:51;;;;;;;249.63;88.53;;;;;;;;;;4995543;28;20466;-49
2024/04/04 11:42:17;;;;;;;252.20;96.90;;;;;;;;;;5005631;28;20505;-49
2024/04/04 11:44:43;;;;;;;253.07;95.63;;;;;;;;;;5008035;28;20444;-49
2024/04/04 11:47:10;;;;;;;256.73;104.17;;;;;;;;;;4997959;28;20441;-50
2024/04/04 11:49:36;;;;;;;256.20;101.47;;;;;;;;;;4999953;28;20701;-48
2024/04/04 11:52:02;;;;;;;247.63;88.07;;;;;;;;;;4997665;28;20777;-50
2024/04/04 11:54:28;;;;;;;250.63;94.50;;;;;;;;;;5008997;28;20423;-50
2024/04/04 11:56:54;;;;;;;257.17;100.60;;;;;;;;;;5017194;28;20465;-51
2024/04/04 11:59:20;;;;;;;254.57;97.63;;;;;;;;;;5002946;28;20451;-50
2024/04/04 12:01:46;;;;;;;254.47;97.97;;;;;;;;;;4996976;28;20462;-49
2024/04/04 12:04:12;;;;;;;251.70;92.70;;;;;;;;;;4996793;28;20411;-50
2024/04/04 12:06:38;;;;;;;254.03;97.83;;;;;;;;;;4996225;28;20896;-50
2024/04/04 12:09:09;;;;;;;247.67;85.87;;;;;;;;;;4996213;28;20478;-48
2024/04/04 12:11:36;;;;;;;250.90;93.93;;;;;;;;;;4995688;28;20917;-50
2024/04/04 12:14:02;;;;;;;251.37;93.03;;;;;;;;;;4996176;28;20181;-50
2024/04/04 12:16:31;;;;;;;252.87;97.20;;;;;;;;;;4997427;28;20465;-50
2024/04/04 12:21:42;;;;;;;248.60;86.00;;;;;;;;;;5011412;28;20454;-49
2024/04/04 12:24:08;;;;;;;249.93;91.50;;;;;;;;;;5017060;28;20400;-50
2024/04/04 12:26:34;;;;;;;248.10;89.28;;;;;;;;;;5017489;28;20413;-49
2024/04/04 12:29:00;;;;;;;249.80;92.33;;;;;;;;;;5016893;28;20656;-48
2024/04/04 12:31:26;;;;;;;250.90;91.90;;;;;;;;;;5017168;28;20439;-50
2024/04/04 12:33:52;;;;;;;253.85;97.93;;;;;;;;;;5017622;28;20408;-50
2024/04/04 12:36:18;;;;;;;253.33;98.70;;;;;;;;;;5016579;28;20556;-49
2024/04/04 12:38:44;;;;;;;255.83;101.33;;;;;;;;;;5016168;28;20425;-48
2024/04/04 12:41:10;;;;;;;254.67;101.00;;;;;;;;;;5016780;28;20493;-48
2024/04/04 12:43:36;;;;;;;248.23;88.27;;;;;;;;;;5016646;28;20414;-49
2024/04/04 12:46:03;;;;;;;248.60;88.10;;;;;;;;;;5016964;28;20420;-48
2024/04/04 12:48:30;;;;;;;246.23;85.97;;;;;;;;;;5017189;28;20407;-49
2024/04/04 12:50:55;;;;;;;249.37;92.73;;;;;;;;;;5017294;28;20475;-50
2024/04/04 12:53:21;;;;;;;245.83;84.17;;;;;;;;;;5017537;28;20429;-50
2024/04/04 12:55:48;;;;;;;247.47;87.37;;;;;;;;;;5017071;28;20418;-50
2024/04/04 12:58:13;;;;;;;245.23;86.73;;;;;;;;;;5017201;28;20816;-48
2024/04/04 13:00:39;;;;;;;245.67;85.90;;;;;;;;;;5016648;28;20474;-49
2024/04/04 13:03:05;;;;;;;248.90;90.97;;;;;;;;;;5006562;28;20426;-49
2024/04/04 13:05:32;;;;;;;250.43;96.20;;;;;;;;;;5016710;28;20406;-50
2024/04/04 13:07:58;;;;;;;253.00;93.83;;;;;;;;;;5013739;28;20469;-48
2024/04/04 13:10:24;;;;;;;247.70;89.20;;;;;;;;;;5014050;28;20435;-49
2024/04/04 13:12:50;;;;;;;251.20;92.93;;;;;;;;;;5014210;28;20418;-51
2024/04/04 13:15:16;;;;;;;251.40;91.53;;;;;;;;;;5014082;28;20502;-51
2024/04/04 13:17:42;;;;;;;258.77;100.93;;;;;;;;;;5015243;28;20922;-49
2024/04/04 13:20:11;;;;;;;254.87;92.47;;;;;;;;;;5013769;28;20471;-47
2024/04/04 13:22:37;;;;;;;253.43;92.33;;;;;;;;;;5013142;28;20411;-51
2024/04/04 13:25:04;;;;;;;255.17;94.83;;;;;;;;;;5013580;28;20412;-51
2024/04/04 13:27:30;;;;;;;258.60;95.50;;;;;;;;;;5014102;28;20892;-50
2024/04/04 13:29:56;;;;;;;255.73;96.57;;;;;;;;;;5014868;28;20446;-51
2024/04/04 13:32:22;;;;;;;258.50;100.10;;;;;;;;;;5015543;28;20930;-52
2024/04/04 13:34:48;;;;;;;258.40;99.53;;;;;;;;;;5015623;28;20415;-49
2024/04/04 13:37:14;;;;;;;258.53;100.80;;;;;;;;;;5015279;28;20419;-50
2024/04/04 13:39:40;;;;;;;259.07;103.30;;;;;;;;;;5013596;28;20496;-47
2024/04/04 13:42:11;;;;;;;258.10;104.03;;;;;;;;;;5015049;28;20454;-48
2024/04/04 13:44:37;;;;;;;255.40;102.23;;;;;;;;;;5015423;28;20415;-50
2024/04/04 13:47:03;;;;;;;256.17;99.93;;;;;;;;;;5014915;28;20418;-49
2024/04/04 13:49:29;;;;;;;260.77;110.07;;;;;;;;;;5015108;28;20968;-50
2024/04/04 13:51:59;;;;;;;260.10;106.43;;;;;;;;;;5013720;28;20411;-49
2024/04/04 13:54:28;;;;;;;257.97;105.73;;;;;;;;;;5014150;28;20426;-50
2024/04/04 13:56:54;;;;;;;257.53;101.53;;;;;;;;;;5013446;28;20784;-50
2024/04/04 13:59:21;;;;;;;255.70;99.27;;;;;;;;;;5013019;28;20449;-51
2024/04/04 14:01:47;;;;;;;259.33;101.43;;;;;;;;;;5014184;28;20418;-50